Time;durP1;ratioP1;P1;durP2;ratioP2;P2;SDS_P1;SDS_P2;PMS_P1;PMS_P2;Temp;Humidity;BMP_temperature;BMP_pressure;BME280_temperature;BME280_humidity;BME280_pressure;Samples;Min_cycle;Max_cycle;Signal;HPM_P1;HPM_P2
2022/07/24 00:01:25;;;;;;;;;;;;;;;18.18;66.24;101516.63;5005870;28;20005;-80
2022/07/24 00:03:51;;;;;;;;;;;;;;;18.19;65.87;101514.84;5009250;28;19922;-80
2022/07/24 00:06:16;;;;;;;;;;;;;;;18.18;66.10;101517.56;4985127;28;20594;-80
2022/07/24 00:08:41;;;;;;;;;;;;;;;18.13;66.36;101515.97;4988302;28;19930;-81
2022/07/24 00:11:07;;;;;;;;;;;;;;;18.15;66.40;101518.56;4994229;28;19921;-80
2022/07/24 00:13:32;;;;;;;;;;;;;;;18.13;66.34;101515.09;5004540;28;19917;-80
2022/07/24 00:15:57;;;;;;;;;;;;;;;18.14;66.03;101517.69;4989244;28;19921;-81
2022/07/24 00:18:23;;;;;;;;;;;;;;;18.12;66.16;101529.19;4991272;28;19949;-80
2022/07/24 00:20:48;;;;;;;;;;;;;;;18.11;66.07;101524.84;4990235;28;19925;-80
2022/07/24 00:23:13;;;;;;;;;;;;;;;18.10;66.23;101521.34;4997486;28;19933;-80
2022/07/24 00:25:39;;;;;;;;;;;;;;;18.14;66.18;101522.09;5009014;28;20550;-80
2022/07/24 00:28:04;;;;;;;;;;;;;;;18.11;65.60;101519.56;5008500;28;19941;-80
2022/07/24 00:30:30;;;;;;;;;;;;;;;18.05;65.82;101518.06;5012129;28;20456;-80
2022/07/24 00:32:55;;;;;;;;;;;;;;;18.03;66.27;101514.63;5010016;28;19939;-80
2022/07/24 00:35:20;;;;;;;;;;;;;;;18.05;66.26;101520.69;5009546;28;19921;-80
2022/07/24 00:37:48;;;;;;;;;;;;;;;18.06;66.26;101513.66;5009632;28;19929;-80
2022/07/24 00:40:15;;;;;;;;;;;;;;;18.04;65.37;101518.09;5009376;28;20003;-81
2022/07/24 00:42:41;;;;;;;;;;;;;;;17.94;66.21;101515.00;5007267;28;19957;-80
2022/07/24 00:45:06;;;;;;;;;;;;;;;17.96;65.87;101513.16;5006460;28;19961;-81
2022/07/24 00:47:32;;;;;;;;;;;;;;;17.95;65.51;101514.06;5009710;28;19921;-78
2022/07/24 00:49:57;;;;;;;;;;;;;;;17.96;66.12;101520.19;5005979;28;20598;-79
2022/07/24 00:52:22;;;;;;;;;;;;;;;17.98;65.68;101506.06;5006727;28;20016;-79
2022/07/24 00:54:47;;;;;;;;;;;;;;;17.93;65.38;101510.66;5008300;28;20017;-79
2022/07/24 00:57:13;;;;;;;;;;;;;;;17.93;65.57;101513.28;5005956;28;19929;-79
2022/07/24 00:59:38;;;;;;;;;;;;;;;17.94;65.39;101509.75;5007337;28;20003;-79
2022/07/24 01:02:03;;;;;;;;;;;;;;;17.91;65.25;101509.00;5005736;28;20925;-79
2022/07/24 01:04:29;;;;;;;;;;;;;;;17.92;65.41;101510.69;5007132;28;20442;-79
2022/07/24 01:06:54;;;;;;;;;;;;;;;17.90;64.89;101508.16;5010166;28;19983;-79
2022/07/24 01:09:19;;;;;;;;;;;;;;;17.89;65.36;101508.19;5005340;28;19953;-79
2022/07/24 01:11:45;;;;;;;;;;;;;;;17.87;65.35;101515.28;5006757;28;20687;-79
2022/07/24 01:14:11;;;;;;;;;;;;;;;17.86;65.60;101505.69;5007612;28;19921;-79
2022/07/24 01:16:37;;;;;;;;;;;;;;;17.86;65.76;101513.56;5005940;28;19930;-79
2022/07/24 01:19:03;;;;;;;;;;;;;;;17.89;65.57;101511.69;5012554;28;19924;-79
2022/07/24 01:21:28;;;;;;;;;;;;;;;17.89;65.57;101513.44;5009577;28;19932;-79
2022/07/24 01:23:54;;;;;;;;;;;;;;;17.90;65.50;101508.16;5006740;28;20428;-79
2022/07/24 01:26:19;;;;;;;;;;;;;;;17.85;65.64;101514.50;5006815;28;19929;-79
2022/07/24 01:28:44;;;;;;;;;;;;;;;17.82;65.82;101517.25;5008492;28;20308;-79
2022/07/24 01:31:10;;;;;;;;;;;;;;;17.83;65.26;101519.81;5005973;28;19937;-79
2022/07/24 01:33:35;;;;;;;;;;;;;;;17.80;65.55;101519.09;5007204;28;19925;-79
2022/07/24 01:36:00;;;;;;;;;;;;;;;17.82;65.42;101517.25;5009216;28;20471;-79
2022/07/24 01:38:26;;;;;;;;;;;;;;;17.80;65.75;101517.28;5011269;28;20307;-79
2022/07/24 01:40:51;;;;;;;;;;;;;;;17.74;65.53;101511.44;5006662;28;19941;-78
2022/07/24 01:43:17;;;;;;;;;;;;;;;17.81;65.35;101512.91;5007430;28;19924;-78
2022/07/24 01:45:42;;;;;;;;;;;;;;;17.73;65.38;101515.84;5009433;28;19918;-78
2022/07/24 01:48:07;;;;;;;;;;;;;;;17.72;65.79;101519.38;5009338;28;19921;-77
2022/07/24 01:50:33;;;;;;;;;;;;;;;17.69;65.74;101513.38;5008210;28;20324;-77
2022/07/24 01:52:58;;;;;;;;;;;;;;;17.66;66.29;101509.09;5005206;28;20012;-77
2022/07/24 01:55:23;;;;;;;;;;;;;;;17.72;66.02;101510.63;5003943;28;19929;-77
2022/07/24 01:57:49;;;;;;;;;;;;;;;17.65;66.09;101507.38;5005227;28;19956;-77
2022/07/24 02:00:15;;;;;;;;;;;;;;;17.65;66.13;101517.88;5002854;28;20312;-77
2022/07/24 02:02:42;;;;;;;;;;;;;;;17.66;66.05;101500.34;5007497;28;19967;-77
2022/07/24 02:05:07;;;;;;;;;;;;;;;17.64;66.28;101502.19;5004827;28;19941;-77
2022/07/24 02:07:33;;;;;;;;;;;;;;;17.60;66.57;101506.72;5009477;28;19969;-77
2022/07/24 02:09:58;;;;;;;;;;;;;;;17.65;66.34;101506.53;5008111;28;19944;-77
2022/07/24 02:12:23;;;;;;;;;;;;;;;17.64;65.94;101500.44;5011587;28;19929;-77
2022/07/24 02:14:49;;;;;;;;;;;;;;;17.60;66.00;101502.31;5007624;28;19925;-77
2022/07/24 02:17:14;;;;;;;;;;;;;;;17.58;66.25;101506.75;5003783;28;19930;-77
2022/07/24 02:19:39;;;;;;;;;;;;;;;17.64;66.08;101496.94;5006367;28;19925;-77
2022/07/24 02:22:05;;;;;;;;;;;;;;;17.63;66.07;101503.09;5008822;28;19926;-77
2022/07/24 02:24:30;;;;;;;;;;;;;;;17.60;65.93;101501.44;5005247;28;20446;-77
2022/07/24 02:26:55;;;;;;;;;;;;;;;17.52;66.12;101512.22;5006839;28;19921;-77
2022/07/24 02:29:21;;;;;;;;;;;;;;;17.54;66.15;101506.91;5002775;28;20367;-77
2022/07/24 02:31:46;;;;;;;;;;;;;;;17.54;65.52;101504.28;5003467;28;20000;-77
2022/07/24 02:34:12;;;;;;;;;;;;;;;17.57;65.85;101509.41;5003199;28;19976;-77
2022/07/24 02:36:37;;;;;;;;;;;;;;;17.50;66.07;101502.69;5008158;28;19925;-77
2022/07/24 02:39:03;;;;;;;;;;;;;;;17.56;65.75;101505.09;5007802;28;19948;-77
2022/07/24 02:41:29;;;;;;;;;;;;;;;17.54;65.81;101501.66;5008809;28;19972;-77
2022/07/24 02:43:54;;;;;;;;;;;;;;;17.57;66.06;101501.53;4999833;28;20007;-77
2022/07/24 02:46:19;;;;;;;;;;;;;;;17.55;65.95;101506.00;4988354;28;19925;-77
2022/07/24 02:48:44;;;;;;;;;;;;;;;17.53;66.37;101508.66;5007878;28;19928;-77
2022/07/24 02:51:10;;;;;;;;;;;;;;;17.49;66.05;101504.47;5007920;28;19921;-77
2022/07/24 02:53:35;;;;;;;;;;;;;;;17.55;65.66;101500.75;5004608;28;20404;-77
2022/07/24 02:56:01;;;;;;;;;;;;;;;17.47;65.84;101495.75;5002692;28;19922;-76
2022/07/24 02:58:26;;;;;;;;;;;;;;;17.41;65.83;101497.78;5004219;28;20296;-77
2022/07/24 03:00:51;;;;;;;;;;;;;;;17.45;66.13;101497.59;5005781;28;19921;-77
2022/07/24 03:03:17;;;;;;;;;;;;;;;17.51;66.05;101489.50;5008026;28;19921;-77
2022/07/24 03:05:42;;;;;;;;;;;;;;;17.44;66.39;101495.06;4995297;28;19923;-77
2022/07/24 03:08:07;;;;;;;;;;;;;;;17.45;66.21;101483.59;4990111;28;20016;-76
2022/07/24 03:10:33;;;;;;;;;;;;;;;17.44;66.35;101490.63;4989389;28;19922;-77
2022/07/24 03:12:58;;;;;;;;;;;;;;;17.41;66.42;101498.63;4992716;28;19914;-76
2022/07/24 03:15:24;;;;;;;;;;;;;;;17.40;66.45;101489.06;4989321;28;19925;-77
2022/07/24 03:17:50;;;;;;;;;;;;;;;17.37;66.56;101493.56;4984761;28;19922;-77
2022/07/24 03:20:15;;;;;;;;;;;;;;;17.37;66.53;101490.94;4992102;28;19936;-77
2022/07/24 03:22:41;;;;;;;;;;;;;;;17.34;66.58;101491.03;4990743;28;20373;-77
2022/07/24 03:25:06;;;;;;;;;;;;;;;17.34;66.19;101483.16;4993110;28;19926;-77
2022/07/24 03:27:31;;;;;;;;;;;;;;;17.38;66.68;101482.97;4996122;28;19989;-77
2022/07/24 03:29:57;;;;;;;;;;;;;;;17.34;66.55;101478.78;4994188;28;20001;-77
2022/07/24 03:32:22;;;;;;;;;;;;;;;17.32;66.57;101479.75;4992540;28;19936;-77
2022/07/24 03:34:47;;;;;;;;;;;;;;;17.37;66.21;101483.91;4987323;28;19922;-77
2022/07/24 03:37:13;;;;;;;;;;;;;;;17.36;66.31;101490.06;5001034;28;19961;-77
2022/07/24 03:39:38;;;;;;;;;;;;;;;17.40;66.10;101482.94;4993642;28;19933;-77
2022/07/24 03:42:03;;;;;;;;;;;;;;;17.42;66.43;101481.09;5004733;28;19929;-77
2022/07/24 03:44:29;;;;;;;;;;;;;;;17.42;66.35;101481.09;4997417;28;19929;-77
2022/07/24 03:46:54;;;;;;;;;;;;;;;17.37;66.61;101489.16;4998247;28;20396;-77
2022/07/24 03:49:19;;;;;;;;;;;;;;;17.34;66.58;101483.16;4994691;28;19968;-77
2022/07/24 03:51:44;;;;;;;;;;;;;;;17.28;66.70;101486.03;4995228;28;19929;-77
2022/07/24 03:54:10;;;;;;;;;;;;;;;17.31;66.29;101488.53;4993254;28;19926;-77
2022/07/24 03:56:35;;;;;;;;;;;;;;;17.28;66.70;101489.50;4998307;28;19975;-77
2022/07/24 03:59:00;;;;;;;;;;;;;;;17.25;66.33;101489.63;4986575;28;19930;-77
2022/07/24 04:01:26;;;;;;;;;;;;;;;17.30;66.54;101489.44;4991644;28;19929;-77
2022/07/24 04:03:51;;;;;;;;;;;;;;;17.30;66.34;101484.19;4990918;28;20393;-77
2022/07/24 04:06:16;;;;;;;;;;;;;;;17.31;66.54;101492.03;5002265;28;20353;-77
2022/07/24 04:08:41;;;;;;;;;;;;;;;17.30;66.41;101495.56;4990876;28;20061;-77
2022/07/24 04:11:07;;;;;;;;;;;;;;;17.32;66.30;101498.13;4997870;28;19923;-79
2022/07/24 04:13:33;;;;;;;;;;;;;;;17.29;66.10;101499.13;4995159;28;19969;-79
2022/07/24 04:15:59;;;;;;;;;;;;;;;17.33;66.16;101499.81;4985937;28;19928;-79
2022/07/24 04:18:24;;;;;;;;;;;;;;;17.27;66.37;101500.91;4990161;28;20418;-79
2022/07/24 04:20:50;;;;;;;;;;;;;;;17.27;66.80;101500.06;4999071;28;19996;-79
2022/07/24 04:23:15;;;;;;;;;;;;;;;17.29;66.52;101496.50;5005365;28;20351;-79
2022/07/24 04:25:41;;;;;;;;;;;;;;;17.34;66.38;101498.94;5006458;28;19987;-79
2022/07/24 04:28:06;;;;;;;;;;;;;;;17.30;66.32;101502.56;5004966;28;20008;-79
2022/07/24 04:30:31;;;;;;;;;;;;;;;17.31;66.41;101499.03;5007660;28;19953;-79
2022/07/24 04:32:57;;;;;;;;;;;;;;;17.32;66.03;101498.97;5005237;28;19980;-79
2022/07/24 04:35:22;;;;;;;;;;;;;;;17.34;66.28;101501.56;5007665;28;19972;-79
2022/07/24 04:37:47;;;;;;;;;;;;;;;17.34;66.34;101498.94;5007238;28;19921;-79
2022/07/24 04:40:13;;;;;;;;;;;;;;;17.38;66.19;101503.16;5007522;28;19930;-79
2022/07/24 04:42:39;;;;;;;;;;;;;;;17.36;66.04;101495.31;5007924;28;19933;-79
2022/07/24 04:45:05;;;;;;;;;;;;;;;17.38;65.75;101503.16;5007258;28;19922;-79
2022/07/24 04:47:30;;;;;;;;;;;;;;;17.36;66.27;101499.72;5008649;28;19930;-79
2022/07/24 04:49:56;;;;;;;;;;;;;;;17.41;66.36;101498.63;5011524;28;20299;-78
2022/07/24 04:52:21;;;;;;;;;;;;;;;17.43;66.32;101496.81;5005538;28;19921;-79
2022/07/24 04:54:46;;;;;;;;;;;;;;;17.43;66.54;101498.59;5006304;28;19922;-79
2022/07/24 04:57:12;;;;;;;;;;;;;;;17.46;66.58;101503.72;4988136;28;19922;-79
2022/07/24 04:59:37;;;;;;;;;;;;;;;17.47;66.21;101502.81;4987257;28;19937;-79
2022/07/24 05:02:02;;;;;;;;;;;;;;;17.47;66.25;101508.06;4989228;28;19953;-79
2022/07/24 05:04:28;;;;;;;;;;;;;;;17.48;66.06;101499.25;4985932;28;19929;-78
2022/07/24 05:06:53;;;;;;;;;;;;;;;17.49;65.83;101501.84;4989728;28;19997;-79
2022/07/24 05:09:19;;;;;;;;;;;;;;;17.46;65.95;101503.72;4988276;28;19925;-79
2022/07/24 05:11:44;;;;;;;;;;;;;;;17.50;65.76;101510.59;4987943;28;20206;-79
2022/07/24 05:14:09;;;;;;;;;;;;;;;17.53;66.14;101503.41;4984811;28;20394;-79
2022/07/24 05:16:35;;;;;;;;;;;;;;;17.55;66.55;101511.25;4990789;28;19973;-79
2022/07/24 05:19:00;;;;;;;;;;;;;;;17.51;66.57;101502.63;4992804;28;19918;-79
2022/07/24 05:21:25;;;;;;;;;;;;;;;17.53;66.52;101503.41;4990314;28;19934;-79
2022/07/24 05:23:51;;;;;;;;;;;;;;;17.55;67.01;101504.22;4987493;28;19972;-79
2022/07/24 05:26:16;;;;;;;;;;;;;;;17.63;66.34;101497.84;4988320;28;19972;-79
2022/07/24 05:28:41;;;;;;;;;;;;;;;17.65;66.69;101488.97;4988894;28;19968;-79
2022/07/24 05:31:08;;;;;;;;;;;;;;;17.67;66.26;101487.19;4991170;28;19922;-79
2022/07/24 05:33:33;;;;;;;;;;;;;;;17.71;66.67;101495.81;4993405;28;19922;-79
2022/07/24 05:35:59;;;;;;;;;;;;;;;17.71;66.72;101496.63;4985639;28;19930;-79
2022/07/24 05:38:24;;;;;;;;;;;;;;;17.69;67.05;101489.72;4990814;28;20653;-79
2022/07/24 05:40:49;;;;;;;;;;;;;;;17.75;66.86;101492.97;4987010;28;19929;-79
2022/07/24 05:43:16;;;;;;;;;;;;;;;17.76;66.60;101492.06;4994744;28;19926;-79
2022/07/24 05:45:41;;;;;;;;;;;;;;;17.80;66.27;101493.63;4991194;28;20392;-79
2022/07/24 05:48:07;;;;;;;;;;;;;;;17.82;65.83;101485.72;4985654;28;19922;-79
2022/07/24 05:50:32;;;;;;;;;;;;;;;17.82;66.82;101483.94;4979512;28;20381;-79
2022/07/24 05:52:57;;;;;;;;;;;;;;;17.82;66.68;101486.56;4990757;28;19930;-79
2022/07/24 05:55:23;;;;;;;;;;;;;;;17.87;66.54;101487.25;5007192;28;19926;-79
2022/07/24 05:57:48;;;;;;;;;;;;;;;17.91;66.69;101486.22;4988500;28;19976;-79
2022/07/24 06:00:14;;;;;;;;;;;;;;;17.88;66.79;101493.34;5000196;28;20281;-79
2022/07/24 06:02:40;;;;;;;;;;;;;;;17.93;67.01;101488.75;4989323;28;20009;-79
2022/07/24 06:05:05;;;;;;;;;;;;;;;17.93;66.29;101494.88;4982935;28;20329;-79
2022/07/24 06:07:31;;;;;;;;;;;;;;;17.93;67.33;101487.00;4981954;28;19930;-79
2022/07/24 06:09:56;;;;;;;;;;;;;;;17.95;67.30;101484.28;5006314;28;19997;-79
2022/07/24 06:12:21;;;;;;;;;;;;;;;17.95;67.36;101489.53;4986063;28;20024;-79
2022/07/24 06:14:47;;;;;;;;;;;;;;;17.96;66.81;101481.63;4984788;28;20304;-79
2022/07/24 06:17:12;;;;;;;;;;;;;;;17.97;66.15;101485.97;4992217;28;19925;-79
2022/07/24 06:19:37;;;;;;;;;;;;;;;18.03;66.92;101484.84;5003687;28;20301;-77
2022/07/24 06:22:02;;;;;;;;;;;;;;;18.01;66.52;101487.53;4983340;28;20453;-77
2022/07/24 06:24:28;;;;;;;;;;;;;;;18.02;66.88;101488.41;5015382;28;19928;-77
2022/07/24 06:26:53;;;;;;;;;;;;;;;18.06;66.29;101488.22;4989869;28;19969;-77
2022/07/24 06:29:18;;;;;;;;;;;;;;;18.07;66.60;101483.78;4983919;28;20001;-77
2022/07/24 06:31:44;;;;;;;;;;;;;;;18.09;67.03;101490.69;4985083;28;19922;-77
2022/07/24 06:34:09;;;;;;;;;;;;;;;18.11;66.96;101485.41;4990994;28;19925;-77
2022/07/24 06:36:34;;;;;;;;;;;;;;;18.14;66.96;101482.66;4991645;28;20028;-77
2022/07/24 06:39:00;;;;;;;;;;;;;;;18.15;66.96;101487.00;4990652;28;20388;-77
2022/07/24 06:41:25;;;;;;;;;;;;;;;18.19;66.14;101478.03;4990167;28;19964;-77
2022/07/24 06:43:50;;;;;;;;;;;;;;;18.21;66.73;101484.13;4994283;28;19921;-77
2022/07/24 06:46:16;;;;;;;;;;;;;;;18.26;66.97;101483.91;4984265;28;19918;-77
2022/07/24 06:48:41;;;;;;;;;;;;;;;18.30;65.69;101477.63;4990160;28;19921;-77
2022/07/24 06:51:06;;;;;;;;;;;;;;;18.28;66.09;101477.66;5012842;28;20369;-80
2022/07/24 06:53:31;;;;;;;;;;;;;;;18.29;66.72;101478.53;4990674;28;19926;-80
2022/07/24 06:55:57;;;;;;;;;;;;;;;18.33;66.24;101473.09;4986319;28;19930;-80
2022/07/24 06:58:22;;;;;;;;;;;;;;;18.40;65.79;101473.66;4995753;28;19926;-77
2022/07/24 07:00:48;;;;;;;;;;;;;;;18.43;65.71;101471.75;4994644;28;20321;-77
2022/07/24 07:03:14;;;;;;;;;;;;;;;18.40;66.11;101471.88;4988969;28;19937;-79
2022/07/24 07:05:39;;;;;;;;;;;;;;;18.44;66.05;101478.75;4991381;28;19917;-79
2022/07/24 07:08:04;;;;;;;;;;;;;;;18.47;65.83;101477.78;4981927;28;20061;-77
2022/07/24 07:10:30;;;;;;;;;;;;;;;18.51;64.42;101468.84;4991172;28;19922;-77
2022/07/24 07:12:55;;;;;;;;;;;;;;;18.47;65.55;101476.00;4988624;28;19933;-77
2022/07/24 07:15:20;;;;;;;;;;;;;;;18.47;65.96;101476.00;4989849;28;19918;-81
2022/07/24 07:17:46;;;;;;;;;;;;;;;18.55;64.32;101478.31;4989416;28;19932;-78
2022/07/24 07:20:12;;;;;;;;;;;;;;;18.53;65.61;101477.53;4990900;28;20289;-76
2022/07/24 07:22:37;;;;;;;;;;;;;;;18.52;65.61;101473.16;4999305;28;19918;-77
2022/07/24 07:25:03;;;;;;;;;;;;;;;18.54;65.06;101481.88;4994062;28;19913;-77
2022/07/24 07:27:29;;;;;;;;;;;;;;;18.57;65.06;101479.94;4994976;28;19977;-77
2022/07/24 07:29:54;;;;;;;;;;;;;;;18.56;65.48;101475.63;4992655;28;19924;-77
2022/07/24 07:32:19;;;;;;;;;;;;;;;18.65;63.98;101477.00;4998542;28;19936;-77
2022/07/24 07:34:45;;;;;;;;;;;;;;;18.67;64.24;101472.53;5009839;28;19922;-77
2022/07/24 07:37:10;;;;;;;;;;;;;;;18.67;64.41;101473.38;5012190;28;19918;-76
2022/07/24 07:39:35;;;;;;;;;;;;;;;18.68;64.15;101477.72;4994516;28;19925;-77
2022/07/24 07:42:01;;;;;;;;;;;;;;;18.67;64.73;101475.16;4994991;28;20360;-77
2022/07/24 07:44:26;;;;;;;;;;;;;;;18.66;64.76;101468.16;4982161;28;19940;-79
2022/07/24 07:46:52;;;;;;;;;;;;;;;18.71;63.45;101471.47;4998122;28;20312;-79
2022/07/24 07:49:18;;;;;;;;;;;;;;;18.68;64.57;101474.25;5006605;28;20365;-79
2022/07/24 07:51:47;;;;;;;;;;;;;;;18.73;63.74;101464.34;5007056;28;20828;-80
2022/07/24 07:54:12;;;;;;;;;;;;;;;18.70;65.22;101475.03;5006916;28;20426;-81
2022/07/24 07:57:20;;;;;;;;;;;;;;;18.67;65.54;101476.00;5024741;28;19917;-81
2022/07/24 07:59:27;;;;;;;;;;;;;;;18.69;65.89;101475.94;4993922;28;20297;-79
2022/07/24 08:01:52;;;;;;;;;;;;;;;18.69;65.25;101470.66;4983014;28;19922;-80
2022/07/24 08:04:18;;;;;;;;;;;;;;;18.73;64.27;101461.72;4987802;28;19924;-78
2022/07/24 08:06:43;;;;;;;;;;;;;;;18.75;63.63;101467.75;4987903;28;19921;-79
2022/07/24 08:09:09;;;;;;;;;;;;;;;18.75;65.29;101462.50;5005565;28;19933;-79
2022/07/24 08:11:34;;;;;;;;;;;;;;;18.73;65.13;101463.50;4976533;28;19922;-80
2022/07/24 08:13:59;;;;;;;;;;;;;;;18.75;64.77;101457.25;4990601;28;19996;-77
2022/07/24 08:16:25;;;;;;;;;;;;;;;18.78;63.55;101461.53;5005613;28;19926;-78
2022/07/24 08:18:50;;;;;;;;;;;;;;;18.81;62.71;101453.50;4997467;28;19930;-78
2022/07/24 08:21:17;;;;;;;;;;;;;;;18.89;62.56;101451.38;4990238;28;19929;-81
2022/07/24 08:23:43;;;;;;;;;;;;;;;18.85;62.16;101453.28;4980715;28;19922;-81
2022/07/24 08:26:09;;;;;;;;;;;;;;;18.78;64.76;101458.91;4985589;28;20412;-81
2022/07/24 08:28:34;;;;;;;;;;;;;;;18.90;62.26;101455.69;4990970;28;19936;-81
2022/07/24 08:30:59;;;;;;;;;;;;;;;18.92;62.26;101451.25;4989223;28;20389;-80
2022/07/24 08:33:24;;;;;;;;;;;;;;;18.83;64.10;101449.88;4986465;28;19945;-80
2022/07/24 08:35:50;;;;;;;;;;;;;;;18.87;63.06;101454.06;4989956;28;19925;-80
2022/07/24 08:38:15;;;;;;;;;;;;;;;18.88;62.69;101447.03;4988385;28;19978;-80
2022/07/24 08:40:41;;;;;;;;;;;;;;;18.79;64.75;101450.94;4994331;28;19928;-80
2022/07/24 08:43:07;;;;;;;;;;;;;;;18.77;64.43;101450.16;4994188;28;19928;-80
2022/07/24 08:45:40;;;;;;;;;;;;;;;18.76;64.71;101443.16;5009282;28;19926;-79
2022/07/24 08:48:06;;;;;;;;;;;;;;;18.80;63.76;101446.53;5010589;28;20007;-79
2022/07/24 08:50:32;;;;;;;;;;;;;;;18.82;65.06;101442.03;5012297;28;19928;-79
2022/07/24 08:52:57;;;;;;;;;;;;;;;18.77;64.98;101439.63;5011525;28;19917;-78
2022/07/24 08:55:23;;;;;;;;;;;;;;;18.79;64.93;101434.28;5009813;28;20304;-79
2022/07/24 08:57:48;;;;;;;;;;;;;;;18.78;65.24;101429.94;4986483;28;20432;-80
2022/07/24 09:00:13;;;;;;;;;;;;;;;18.80;64.84;101441.25;4990122;28;20274;-80
2022/07/24 09:02:39;;;;;;;;;;;;;;;18.82;65.06;101440.25;4988458;28;19922;-80
2022/07/24 09:05:04;;;;;;;;;;;;;;;18.78;66.10;101437.84;4991721;28;20439;-80
2022/07/24 09:07:30;;;;;;;;;;;;;;;18.84;64.12;101432.31;4988021;28;20360;-80
2022/07/24 09:09:59;;;;;;;;;;;;;;;18.81;65.32;101433.28;4991336;28;19922;-80
2022/07/24 09:12:25;;;;;;;;;;;;;;;18.86;63.43;101433.94;5003695;28;20388;-80
2022/07/24 09:14:50;;;;;;;;;;;;;;;18.85;64.57;101434.88;4990842;28;19956;-80
2022/07/24 09:17:17;;;;;;;;;;;;;;;18.86;64.49;101433.09;4991761;28;19964;-80
2022/07/24 09:19:59;;;;;;;;;;;;;;;18.90;62.91;101417.06;4989115;28;20578;-80
2022/07/24 09:22:27;;;;;;;;;;;;;;;18.85;64.77;101413.81;4992122;28;19925;-80
2022/07/24 09:25:04;;;;;;;;;;;;;;;19.11;60.45;101410.84;4988553;28;19918;-80
2022/07/24 09:27:30;;;;;;;;;;;;;;;18.92;63.83;101409.97;5002869;28;19921;-80
2022/07/24 09:29:55;;;;;;;;;;;;;;;19.05;61.88;101405.84;5007912;28;20359;-80
2022/07/24 09:32:24;;;;;;;;;;;;;;;18.90;64.47;101408.31;5009223;28;19929;-80
2022/07/24 09:34:50;;;;;;;;;;;;;;;18.89;64.32;101406.63;5009259;28;19928;-80
2022/07/24 09:37:16;;;;;;;;;;;;;;;18.90;64.68;101403.03;5010436;28;19918;-80
2022/07/24 09:39:41;;;;;;;;;;;;;;;18.86;64.80;101398.88;4990788;28;19922;-80
2022/07/24 09:42:07;;;;;;;;;;;;;;;18.84;65.04;101396.28;5008411;28;20432;-80
2022/07/24 09:44:33;;;;;;;;;;;;;;;18.84;65.01;101390.19;4991728;28;19922;-80
2022/07/24 09:46:59;;;;;;;;;;;;;;;18.83;64.94;101377.94;5010268;28;19921;-80
2022/07/24 09:49:25;;;;;;;;;;;;;;;18.97;64.45;101373.75;5007090;28;19956;-80
2022/07/24 09:52:11;;;;;;;;;;;;;;;18.89;64.90;101383.78;5004624;28;19917;-80
2022/07/24 09:54:37;;;;;;;;;;;;;;;18.87;65.00;101379.53;4984320;28;19925;-80
2022/07/24 09:57:33;;;;;;;;;;;;;;;19.01;64.49;101374.47;5007477;28;19917;-80
2022/07/24 10:00:00;;;;;;;;;;;;;;;18.93;64.79;101381.84;4982358;28;20054;-80
2022/07/24 10:02:29;;;;;;;;;;;;;;;19.04;64.56;101369.94;4979448;28;19930;-80
2022/07/24 10:04:55;;;;;;;;;;;;;;;18.95;64.74;101377.38;4990993;28;19929;-79
2022/07/24 10:07:22;;;;;;;;;;;;;;;19.07;63.60;101372.41;4987151;28;19922;-80
2022/07/24 10:09:48;;;;;;;;;;;;;;;19.14;62.23;101365.06;4991008;28;20388;-80
2022/07/24 10:12:21;;;;;;;;;;;;;;;18.99;64.58;101369.25;5010456;28;19992;-80
2022/07/24 10:14:49;;;;;;;;;;;;;;;18.99;64.51;101371.91;5016595;28;19922;-80
2022/07/24 10:17:15;;;;;;;;;;;;;;;19.09;64.23;101359.16;5010992;28;20396;-78
2022/07/24 10:19:40;;;;;;;;;;;;;;;19.05;64.45;101354.94;5006315;28;19971;-79
2022/07/24 10:22:15;;;;;;;;;;;;;;;19.22;63.18;101365.56;5008301;28;19918;-77
2022/07/24 10:24:44;;;;;;;;;;;;;;;19.03;64.41;101355.03;5005067;28;19963;-77
2022/07/24 10:27:17;;;;;;;;;;;;;;;19.00;64.69;101357.81;5005993;28;19924;-81
2022/07/24 10:29:43;;;;;;;;;;;;;;;18.99;64.74;101361.38;5018678;28;20328;-81
2022/07/24 10:32:09;;;;;;;;;;;;;;;19.01;64.56;101353.41;5011160;28;19979;-81
2022/07/24 10:34:37;;;;;;;;;;;;;;;19.00;64.69;101349.91;4993776;28;19964;-77
2022/07/24 10:37:20;;;;;;;;;;;;;;;19.11;62.00;101346.78;5002321;28;19909;-81
2022/07/24 10:40:04;;;;;;;;;;;;;;;19.17;62.99;101342.06;5006616;28;19932;-81
2022/07/24 10:42:29;;;;;;;;;;;;;;;19.12;63.79;101341.44;5001040;28;19993;-77
2022/07/24 10:45:13;;;;;;;;;;;;;;;19.00;64.43;101338.53;5005361;28;19925;-81
2022/07/24 10:47:39;;;;;;;;;;;;;;;19.00;64.53;101333.25;5011782;28;19926;-78
2022/07/24 10:50:04;;;;;;;;;;;;;;;19.01;64.72;101327.06;4991699;28;19922;-82
2022/07/24 10:52:32;;;;;;;;;;;;;;;19.60;58.57;101321.59;5006155;28;19937;-81
2022/07/24 10:55:16;;;;;;;;;;;;;;;19.33;60.73;101333.47;5007446;28;19918;-77
2022/07/24 10:57:46;;;;;;;;;;;;;;;19.21;63.62;101327.84;5006185;28;19921;-77
2022/07/24 11:00:22;;;;;;;;;;;;;;;19.33;62.87;101326.44;5006521;28;19934;-77
2022/07/24 11:03:16;;;;;;;;;;;;;;;19.15;62.88;101319.38;5007089;28;20296;-77
2022/07/24 11:05:42;;;;;;;;;;;;;;;19.31;63.52;101315.13;4996369;28;19969;-78
2022/07/24 11:08:17;;;;;;;;;;;;;;;19.16;64.43;101324.56;5008692;28;20023;-78
2022/07/24 11:10:50;;;;;;;;;;;;;;;19.31;60.39;101309.84;5022958;28;19928;-78
2022/07/24 11:13:31;;;;;;;;;;;;;;;19.12;64.48;101311.63;5008575;28;20311;-77
2022/07/24 11:16:14;;;;;;;;;;;;;;;19.10;64.77;101310.84;5002351;28;19979;-77
2022/07/24 11:18:52;;;;;;;;;;;;;;;19.84;55.84;101304.53;5017062;28;20004;-81
2022/07/24 11:21:41;;;;;;;;;;;;;;;19.61;57.28;101303.03;4992423;28;19929;-81
2022/07/24 11:24:16;;;;;;;;;;;;;;;19.47;58.58;101296.75;5005751;28;19977;-80
2022/07/24 11:27:18;;;;;;;;;;;;;;;19.31;62.82;101301.09;5019807;28;19937;-80
2022/07/24 11:29:44;;;;;;;;;;;;;;;19.44;62.65;101296.91;4943364;28;19922;-80
2022/07/24 11:32:22;;;;;;;;;;;;;;;19.39;62.83;101297.16;4995963;28;20303;-80
2022/07/24 11:34:50;;;;;;;;;;;;;;;19.21;64.32;101292.75;5007834;28;20071;-80
2022/07/24 11:37:15;;;;;;;;;;;;;;;19.27;64.10;101292.44;4999795;28;19928;-80
2022/07/24 11:39:43;;;;;;;;;;;;;;;19.52;60.16;101278.97;5003710;28;20292;-82
2022/07/24 11:42:16;;;;;;;;;;;;;;;19.35;63.20;101281.56;5009469;28;19949;-82
2022/07/24 11:44:46;;;;;;;;;;;;;;;19.74;57.14;101271.66;5005855;28;19921;-81
2022/07/24 11:47:13;;;;;;;;;;;;;;;19.61;60.27;101268.78;5006955;28;20423;-81
2022/07/24 11:52:26;;;;;;;;;;;;;;;19.33;64.69;101272.88;5006065;28;19925;-81
2022/07/24 11:54:54;;;;;;;;;;;;;;;19.39;60.23;101262.91;5010943;28;19921;-81
2022/07/24 11:57:30;;;;;;;;;;;;;;;20.03;55.28;101256.97;5005207;28;19922;-82
2022/07/24 11:59:56;;;;;;;;;;;;;;;20.06;56.11;101259.44;5013262;28;19941;-81
2022/07/24 12:02:22;;;;;;;;;;;;;;;20.49;52.05;101247.50;5010686;28;19921;-81
2022/07/24 12:04:49;;;;;;;;;;;;;;;19.84;57.69;101256.22;5003845;28;19968;-82
2022/07/24 12:07:17;;;;;;;;;;;;;;;19.55;63.31;101258.56;5007795;28;19943;-81
2022/07/24 12:09:46;;;;;;;;;;;;;;;19.73;59.20;101254.97;4999955;28;19922;-82
2022/07/24 12:12:32;;;;;;;;;;;;;;;19.62;62.50;101251.19;5006910;28;19936;-82
2022/07/24 12:15:02;;;;;;;;;;;;;;;19.49;64.16;101243.03;5003522;28;19918;-81
2022/07/24 12:17:28;;;;;;;;;;;;;;;19.33;65.17;101250.03;5009569;28;19917;-81
2022/07/24 12:19:55;;;;;;;;;;;;;;;19.91;57.57;101244.41;5003234;28;19925;-81
2022/07/24 12:22:21;;;;;;;;;;;;;;;20.14;55.45;101231.78;5002142;28;20033;-81
2022/07/24 12:24:46;;;;;;;;;;;;;;;19.84;59.65;101243.03;5004289;28;19924;-82
2022/07/24 12:27:12;;;;;;;;;;;;;;;19.58;63.73;101247.03;5003841;28;19921;-82
2022/07/24 12:29:46;;;;;;;;;;;;;;;19.38;65.29;101233.97;5000529;28;20392;-81
2022/07/24 12:32:21;;;;;;;;;;;;;;;19.57;61.21;101218.97;5005413;28;19995;-81
2022/07/24 12:34:47;;;;;;;;;;;;;;;19.40;65.40;101229.50;4998256;28;19929;-81
2022/07/24 12:37:16;;;;;;;;;;;;;;;19.44;65.21;101224.00;5004538;28;19925;-82